Terminal Aerodrome Forecast
Issued by NWS Medford, OR

Home | Current Version | Previous Version | Text Only | Print | Product List | Glossary On
Versions: 1 2 3 4 5 6 7 8 9 10 11 12
000
FTUS46 KMFR 030520
TAFMFR
TAF
KMFR 030520Z 0306/0406 36003KT P6SM SCT250
     FM032200 32011KT P6SM SKC
     FM040400 35003KT P6SM SKC=

USA.gov is the U.S. government's official web portal to all federal, state and local government web resources and services.